Kennedale's Hourly Summary for Friday, April 14, 2017
Hour Temp
(f)
RH
(%)
Solar Rad.
(MJ/m2)
Rainfall
(in)
Wind
(mph)
4/14/2017 12:00 AM 68 73 0 0 0
4/14/2017 1:00 AM 68 68 0 0 0
4/14/2017 2:00 AM 68 68 0 0 0
4/14/2017 3:00 AM 66 73 0 0 0
4/14/2017 4:00 AM 65 78 0 0 0
4/14/2017 5:00 AM 65 81 0 0 0
4/14/2017 6:00 AM 64 85 0 0 0
4/14/2017 7:00 AM 64 88 0.01 0 0
4/14/2017 8:00 AM 64 89 0.11 0 0
4/14/2017 9:00 AM 65 89 0.25 0 0
4/14/2017 10:00 AM 67 83 0.7 0 0
4/14/2017 11:00 AM 71 70 2.21 0 0
4/14/2017 12:00 PM 73 64 2.61 0 0
4/14/2017 1:00 PM 74 58 2.77 0 0
4/14/2017 2:00 PM 76 54 2.83 0 0
4/14/2017 3:00 PM 77 53 2.72 0 0
4/14/2017 4:00 PM 78 50 2.26 0 0
4/14/2017 5:00 PM 78 49 1.61 0 0
4/14/2017 6:00 PM 77 50 0.95 0 0
4/14/2017 7:00 PM 75 56 0.21 0 0
4/14/2017 8:00 PM 72 65 0.01 0 0
4/14/2017 9:00 PM 70 69 0 0 0
4/14/2017 10:00 PM 68 74 0 0 0
4/14/2017 11:00 PM 67 76 0 0 0
Data Summary 70 69 19.25 0.00 0.00